Melbourne Beach, Florida
Current Conditions -  °F | °C
As of 5:53 AM on Saturday 20 Dec 2014 (Local Time) from KMLB Reporting Station
Scattered Clouds Scattered Clouds  
Wind Chill: 54°   Ceiling: Unl
Heat Index: 54°   Visibility: 7mi
Dew Point: 52°   Wind: 3mph
Humidity: 93%   Direction: 270°W
Pressure: 30.07"   Gusts: NA
Location:  28.07°N, 80.56°W
Report Text: KMLB 201053Z 27003KT 7SM SCT044 12/11 A3007 RMK AO2 SLP182 T01220111
Loading
Personal Weather Stations






























Interactive Weather Map New forecast layout! Learn more

10-Day Weather Forecast

Advertisements
Track Severe Weather on mobile